sensor_id;sensor_type;location;lat;lon;timestamp;P1;durP1;ratioP1;P2;durP2;ratioP2
4839;SDS011;2434;48.486;7.964;2023-09-18T00:00:51;5.60;;;2.67;;
4839;SDS011;2434;48.486;7.964;2023-09-18T00:03:23;7.20;;;2.50;;
4839;SDS011;2434;48.486;7.964;2023-09-18T00:05:52;5.13;;;2.23;;
4839;SDS011;2434;48.486;7.964;2023-09-18T00:08:20;6.27;;;2.73;;
4839;SDS011;2434;48.486;7.964;2023-09-18T00:10:49;4.23;;;2.27;;
4839;SDS011;2434;48.486;7.964;2023-09-18T00:13:21;4.47;;;2.50;;
4839;SDS011;2434;48.486;7.964;2023-09-18T00:15:53;7.90;;;3.10;;
4839;SDS011;2434;48.486;7.964;2023-09-18T00:18:22;5.87;;;2.53;;
4839;SDS011;2434;48.486;7.964;2023-09-18T00:20:51;5.20;;;2.63;;
4839;SDS011;2434;48.486;7.964;2023-09-18T00:23:20;6.30;;;2.40;;
4839;SDS011;2434;48.486;7.964;2023-09-18T00:25:49;5.17;;;2.23;;
4839;SDS011;2434;48.486;7.964;2023-09-18T00:28:17;4.33;;;2.03;;
4839;SDS011;2434;48.486;7.964;2023-09-18T00:30:47;3.37;;;1.90;;
4839;SDS011;2434;48.486;7.964;2023-09-18T00:33:19;8.93;;;2.83;;
4839;SDS011;2434;48.486;7.964;2023-09-18T00:35:47;6.73;;;2.33;;
4839;SDS011;2434;48.486;7.964;2023-09-18T00:38:16;7.03;;;2.63;;
4839;SDS011;2434;48.486;7.964;2023-09-18T00:40:46;6.57;;;2.50;;
4839;SDS011;2434;48.486;7.964;2023-09-18T00:43:15;9.77;;;2.80;;
4839;SDS011;2434;48.486;7.964;2023-09-18T00:45:45;3.63;;;1.90;;
4839;SDS011;2434;48.486;7.964;2023-09-18T00:48:15;7.13;;;2.23;;
4839;SDS011;2434;48.486;7.964;2023-09-18T00:50:46;8.93;;;2.03;;
4839;SDS011;2434;48.486;7.964;2023-09-18T00:53:16;6.30;;;2.00;;
4839;SDS011;2434;48.486;7.964;2023-09-18T00:55:47;7.40;;;2.33;;
4839;SDS011;2434;48.486;7.964;2023-09-18T00:58:18;10.03;;;3.30;;
4839;SDS011;2434;48.486;7.964;2023-09-18T01:00:46;8.93;;;2.90;;
4839;SDS011;2434;48.486;7.964;2023-09-18T01:03:18;9.00;;;2.67;;
4839;SDS011;2434;48.486;7.964;2023-09-18T01:05:48;11.07;;;3.57;;
4839;SDS011;2434;48.486;7.964;2023-09-18T01:08:17;8.53;;;2.77;;
4839;SDS011;2434;48.486;7.964;2023-09-18T01:10:47;4.93;;;2.83;;
4839;SDS011;2434;48.486;7.964;2023-09-18T01:13:21;9.23;;;2.90;;
4839;SDS011;2434;48.486;7.964;2023-09-18T01:15:56;6.77;;;2.93;;
4839;SDS011;2434;48.486;7.964;2023-09-18T01:18:30;5.50;;;2.80;;
4839;SDS011;2434;48.486;7.964;2023-09-18T01:21:00;7.57;;;2.63;;
4839;SDS011;2434;48.486;7.964;2023-09-18T01:23:30;4.83;;;2.57;;
4839;SDS011;2434;48.486;7.964;2023-09-18T01:25:58;4.90;;;2.30;;
4839;SDS011;2434;48.486;7.964;2023-09-18T01:28:27;7.43;;;2.53;;
4839;SDS011;2434;48.486;7.964;2023-09-18T01:30:55;8.13;;;2.90;;
4839;SDS011;2434;48.486;7.964;2023-09-18T01:33:24;6.67;;;2.40;;
4839;SDS011;2434;48.486;7.964;2023-09-18T01:35:55;18.70;;;3.33;;
4839;SDS011;2434;48.486;7.964;2023-09-18T01:38:23;4.93;;;2.47;;
4839;SDS011;2434;48.486;7.964;2023-09-18T01:40:54;5.70;;;2.50;;
4839;SDS011;2434;48.486;7.964;2023-09-18T01:43:24;4.40;;;2.47;;
4839;SDS011;2434;48.486;7.964;2023-09-18T01:45:52;5.33;;;2.70;;
4839;SDS011;2434;48.486;7.964;2023-09-18T01:48:23;9.80;;;2.70;;
4839;SDS011;2434;48.486;7.964;2023-09-18T01:50:51;5.93;;;2.33;;
4839;SDS011;2434;48.486;7.964;2023-09-18T01:53:20;5.60;;;2.43;;
4839;SDS011;2434;48.486;7.964;2023-09-18T01:55:48;7.20;;;2.90;;
4839;SDS011;2434;48.486;7.964;2023-09-18T01:58:18;3.70;;;2.60;;
4839;SDS011;2434;48.486;7.964;2023-09-18T02:00:47;7.40;;;2.93;;
4839;SDS011;2434;48.486;7.964;2023-09-18T02:03:16;6.57;;;3.20;;
4839;SDS011;2434;48.486;7.964;2023-09-18T02:06:07;9.03;;;3.27;;
4839;SDS011;2434;48.486;7.964;2023-09-18T02:08:35;8.23;;;3.03;;
4839;SDS011;2434;48.486;7.964;2023-09-18T02:11:04;7.93;;;4.00;;
4839;SDS011;2434;48.486;7.964;2023-09-18T02:13:34;7.03;;;4.30;;
4839;SDS011;2434;48.486;7.964;2023-09-18T02:16:02;9.13;;;3.60;;
4839;SDS011;2434;48.486;7.964;2023-09-18T02:18:31;10.80;;;3.80;;
4839;SDS011;2434;48.486;7.964;2023-09-18T02:20:59;7.63;;;3.40;;
4839;SDS011;2434;48.486;7.964;2023-09-18T02:23:27;9.57;;;3.37;;
4839;SDS011;2434;48.486;7.964;2023-09-18T02:25:56;8.13;;;4.10;;
4839;SDS011;2434;48.486;7.964;2023-09-18T02:28:25;7.60;;;3.30;;
4839;SDS011;2434;48.486;7.964;2023-09-18T02:30:54;7.80;;;4.30;;
4839;SDS011;2434;48.486;7.964;2023-09-18T02:33:23;8.40;;;3.80;;
4839;SDS011;2434;48.486;7.964;2023-09-18T02:35:51;13.50;;;3.80;;
4839;SDS011;2434;48.486;7.964;2023-09-18T02:38:19;9.07;;;3.53;;
4839;SDS011;2434;48.486;7.964;2023-09-18T02:40:48;10.37;;;4.13;;
4839;SDS011;2434;48.486;7.964;2023-09-18T02:43:16;10.47;;;3.47;;
4839;SDS011;2434;48.486;7.964;2023-09-18T02:45:44;10.77;;;3.13;;
4839;SDS011;2434;48.486;7.964;2023-09-18T02:48:14;9.43;;;3.60;;
4839;SDS011;2434;48.486;7.964;2023-09-18T02:50:43;9.13;;;3.70;;
4839;SDS011;2434;48.486;7.964;2023-09-18T02:53:17;8.67;;;3.87;;
4839;SDS011;2434;48.486;7.964;2023-09-18T02:55:46;11.97;;;4.33;;
4839;SDS011;2434;48.486;7.964;2023-09-18T02:58:19;8.10;;;3.83;;
4839;SDS011;2434;48.486;7.964;2023-09-18T03:00:48;12.27;;;3.80;;
4839;SDS011;2434;48.486;7.964;2023-09-18T03:03:19;18.47;;;4.83;;
4839;SDS011;2434;48.486;7.964;2023-09-18T03:05:47;15.93;;;5.13;;
4839;SDS011;2434;48.486;7.964;2023-09-18T03:08:16;11.40;;;5.30;;
4839;SDS011;2434;48.486;7.964;2023-09-18T03:10:44;13.53;;;5.00;;
4839;SDS011;2434;48.486;7.964;2023-09-18T03:13:14;14.03;;;4.20;;
4839;SDS011;2434;48.486;7.964;2023-09-18T03:15:46;12.53;;;4.20;;
4839;SDS011;2434;48.486;7.964;2023-09-18T03:18:14;10.07;;;4.37;;
4839;SDS011;2434;48.486;7.964;2023-09-18T03:20:44;10.03;;;3.97;;
4839;SDS011;2434;48.486;7.964;2023-09-18T03:23:12;15.20;;;4.10;;
4839;SDS011;2434;48.486;7.964;2023-09-18T03:25:41;15.87;;;4.33;;
4839;SDS011;2434;48.486;7.964;2023-09-18T03:28:17;17.83;;;4.53;;
4839;SDS011;2434;48.486;7.964;2023-09-18T03:30:47;16.13;;;4.10;;
4839;SDS011;2434;48.486;7.964;2023-09-18T03:33:18;11.10;;;3.43;;
4839;SDS011;2434;48.486;7.964;2023-09-18T03:35:49;9.57;;;3.23;;
4839;SDS011;2434;48.486;7.964;2023-09-18T03:38:22;14.57;;;4.53;;
4839;SDS011;2434;48.486;7.964;2023-09-18T03:40:51;12.57;;;3.43;;
4839;SDS011;2434;48.486;7.964;2023-09-18T03:43:20;8.33;;;3.83;;
4839;SDS011;2434;48.486;7.964;2023-09-18T03:45:49;16.23;;;2.83;;
4839;SDS011;2434;48.486;7.964;2023-09-18T03:48:18;7.00;;;2.37;;
4839;SDS011;2434;48.486;7.964;2023-09-18T03:50:49;10.33;;;2.43;;
4839;SDS011;2434;48.486;7.964;2023-09-18T03:53:17;10.53;;;2.43;;
4839;SDS011;2434;48.486;7.964;2023-09-18T03:55:47;7.80;;;3.10;;
4839;SDS011;2434;48.486;7.964;2023-09-18T03:58:16;5.80;;;2.30;;
4839;SDS011;2434;48.486;7.964;2023-09-18T04:00:44;9.90;;;2.10;;
4839;SDS011;2434;48.486;7.964;2023-09-18T04:03:13;3.40;;;1.93;;
4839;SDS011;2434;48.486;7.964;2023-09-18T04:05:41;9.83;;;1.87;;
4839;SDS011;2434;48.486;7.964;2023-09-18T04:08:11;8.80;;;2.00;;
4839;SDS011;2434;48.486;7.964;2023-09-18T04:10:39;9.40;;;1.63;;
4839;SDS011;2434;48.486;7.964;2023-09-18T04:13:08;7.10;;;1.50;;
4839;SDS011;2434;48.486;7.964;2023-09-18T04:15:36;7.50;;;1.77;;
4839;SDS011;2434;48.486;7.964;2023-09-18T04:18:05;5.47;;;1.70;;
4839;SDS011;2434;48.486;7.964;2023-09-18T04:20:34;10.50;;;1.93;;
4839;SDS011;2434;48.486;7.964;2023-09-18T04:23:18;5.57;;;1.53;;
4839;SDS011;2434;48.486;7.964;2023-09-18T04:25:51;4.47;;;1.33;;
4839;SDS011;2434;48.486;7.964;2023-09-18T04:28:21;6.90;;;1.70;;
4839;SDS011;2434;48.486;7.964;2023-09-18T04:30:50;3.97;;;1.63;;
4839;SDS011;2434;48.486;7.964;2023-09-18T04:33:20;5.30;;;2.10;;
4839;SDS011;2434;48.486;7.964;2023-09-18T04:35:49;4.60;;;1.20;;
4839;SDS011;2434;48.486;7.964;2023-09-18T04:38:19;3.00;;;1.30;;
4839;SDS011;2434;48.486;7.964;2023-09-18T04:40:47;3.37;;;1.23;;
4839;SDS011;2434;48.486;7.964;2023-09-18T04:43:15;2.93;;;1.30;;
4839;SDS011;2434;48.486;7.964;2023-09-18T04:45:44;7.57;;;1.87;;
4839;SDS011;2434;48.486;7.964;2023-09-18T04:48:14;9.70;;;2.10;;
4839;SDS011;2434;48.486;7.964;2023-09-18T04:50:43;3.50;;;1.60;;
4839;SDS011;2434;48.486;7.964;2023-09-18T04:53:12;5.47;;;1.70;;
4839;SDS011;2434;48.486;7.964;2023-09-18T04:55:42;9.10;;;1.70;;
4839;SDS011;2434;48.486;7.964;2023-09-18T04:58:11;7.90;;;2.00;;
4839;SDS011;2434;48.486;7.964;2023-09-18T05:00:39;5.23;;;1.90;;
4839;SDS011;2434;48.486;7.964;2023-09-18T05:03:08;4.50;;;1.47;;
4839;SDS011;2434;48.486;7.964;2023-09-18T05:05:38;5.20;;;1.87;;
4839;SDS011;2434;48.486;7.964;2023-09-18T05:08:07;4.43;;;1.80;;
4839;SDS011;2434;48.486;7.964;2023-09-18T05:10:35;7.00;;;2.20;;
4839;SDS011;2434;48.486;7.964;2023-09-18T05:13:05;4.27;;;1.60;;
4839;SDS011;2434;48.486;7.964;2023-09-18T05:15:35;6.13;;;1.50;;
4839;SDS011;2434;48.486;7.964;2023-09-18T05:18:03;4.07;;;1.30;;
4839;SDS011;2434;48.486;7.964;2023-09-18T05:20:33;4.43;;;2.10;;
4839;SDS011;2434;48.486;7.964;2023-09-18T05:23:02;11.03;;;2.00;;
4839;SDS011;2434;48.486;7.964;2023-09-18T05:25:31;7.23;;;2.17;;
4839;SDS011;2434;48.486;7.964;2023-09-18T05:28:00;4.37;;;1.50;;
4839;SDS011;2434;48.486;7.964;2023-09-18T05:30:34;2.80;;;1.20;;
4839;SDS011;2434;48.486;7.964;2023-09-18T05:33:05;6.00;;;1.70;;
4839;SDS011;2434;48.486;7.964;2023-09-18T05:35:36;6.97;;;1.47;;
4839;SDS011;2434;48.486;7.964;2023-09-18T05:38:07;6.93;;;2.27;;
4839;SDS011;2434;48.486;7.964;2023-09-18T05:40:36;5.10;;;1.50;;
4839;SDS011;2434;48.486;7.964;2023-09-18T05:43:05;3.03;;;1.20;;
4839;SDS011;2434;48.486;7.964;2023-09-18T05:45:35;3.60;;;1.30;;
4839;SDS011;2434;48.486;7.964;2023-09-18T05:48:03;6.00;;;1.30;;
4839;SDS011;2434;48.486;7.964;2023-09-18T05:50:33;8.60;;;2.17;;
4839;SDS011;2434;48.486;7.964;2023-09-18T05:53:03;8.63;;;1.40;;
4839;SDS011;2434;48.486;7.964;2023-09-18T05:55:32;5.80;;;1.47;;
4839;SDS011;2434;48.486;7.964;2023-09-18T05:58:01;5.40;;;1.30;;
4839;SDS011;2434;48.486;7.964;2023-09-18T06:00:34;2.67;;;1.40;;
4839;SDS011;2434;48.486;7.964;2023-09-18T06:03:03;8.50;;;1.00;;
4839;SDS011;2434;48.486;7.964;2023-09-18T06:05:33;6.07;;;1.13;;
4839;SDS011;2434;48.486;7.964;2023-09-18T06:08:02;4.80;;;1.47;;
4839;SDS011;2434;48.486;7.964;2023-09-18T06:10:32;5.43;;;1.10;;
4839;SDS011;2434;48.486;7.964;2023-09-18T06:13:01;3.70;;;1.33;;
4839;SDS011;2434;48.486;7.964;2023-09-18T06:15:32;7.60;;;1.43;;
4839;SDS011;2434;48.486;7.964;2023-09-18T06:18:02;3.83;;;1.17;;
4839;SDS011;2434;48.486;7.964;2023-09-18T06:20:32;3.40;;;1.30;;
4839;SDS011;2434;48.486;7.964;2023-09-18T06:23:01;5.53;;;1.47;;
4839;SDS011;2434;48.486;7.964;2023-09-18T06:25:30;3.83;;;1.13;;
4839;SDS011;2434;48.486;7.964;2023-09-18T06:27:59;4.13;;;1.20;;
4839;SDS011;2434;48.486;7.964;2023-09-18T06:30:29;3.83;;;1.73;;
4839;SDS011;2434;48.486;7.964;2023-09-18T06:33:00;3.57;;;1.60;;
4839;SDS011;2434;48.486;7.964;2023-09-18T06:35:31;3.30;;;0.97;;
4839;SDS011;2434;48.486;7.964;2023-09-18T06:37:59;8.33;;;1.30;;
4839;SDS011;2434;48.486;7.964;2023-09-18T06:40:27;6.87;;;1.00;;
4839;SDS011;2434;48.486;7.964;2023-09-18T06:42:58;2.57;;;1.30;;
4839;SDS011;2434;48.486;7.964;2023-09-18T06:45:27;6.90;;;1.30;;
4839;SDS011;2434;48.486;7.964;2023-09-18T06:47:56;2.73;;;1.00;;
4839;SDS011;2434;48.486;7.964;2023-09-18T06:50:26;4.60;;;1.00;;
4839;SDS011;2434;48.486;7.964;2023-09-18T06:52:54;3.47;;;1.37;;
4839;SDS011;2434;48.486;7.964;2023-09-18T06:55:23;3.77;;;1.20;;
4839;SDS011;2434;48.486;7.964;2023-09-18T06:57:51;6.83;;;1.10;;
4839;SDS011;2434;48.486;7.964;2023-09-18T07:00:19;2.20;;;0.80;;
4839;SDS011;2434;48.486;7.964;2023-09-18T07:02:48;4.90;;;1.30;;
4839;SDS011;2434;48.486;7.964;2023-09-18T07:05:17;3.57;;;1.13;;
4839;SDS011;2434;48.486;7.964;2023-09-18T07:07:47;4.63;;;1.53;;
4839;SDS011;2434;48.486;7.964;2023-09-18T07:10:15;3.17;;;1.37;;
4839;SDS011;2434;48.486;7.964;2023-09-18T07:12:43;6.27;;;1.50;;
4839;SDS011;2434;48.486;7.964;2023-09-18T07:15:12;5.57;;;1.40;;
4839;SDS011;2434;48.486;7.964;2023-09-18T07:17:40;4.67;;;1.33;;
4839;SDS011;2434;48.486;7.964;2023-09-18T07:20:09;4.33;;;1.67;;
4839;SDS011;2434;48.486;7.964;2023-09-18T07:22:45;1.50;;;0.90;;
4839;SDS011;2434;48.486;7.964;2023-09-18T07:25:16;3.43;;;0.97;;
4839;SDS011;2434;48.486;7.964;2023-09-18T07:27:45;4.10;;;1.70;;
4839;SDS011;2434;48.486;7.964;2023-09-18T07:30:13;5.07;;;1.70;;
4839;SDS011;2434;48.486;7.964;2023-09-18T07:32:45;3.60;;;1.00;;
4839;SDS011;2434;48.486;7.964;2023-09-18T07:35:14;4.83;;;2.23;;
4839;SDS011;2434;48.486;7.964;2023-09-18T07:37:43;5.03;;;1.60;;
4839;SDS011;2434;48.486;7.964;2023-09-18T07:40:14;7.80;;;1.40;;
4839;SDS011;2434;48.486;7.964;2023-09-18T07:42:43;5.10;;;1.30;;
4839;SDS011;2434;48.486;7.964;2023-09-18T07:45:12;8.60;;;1.77;;
4839;SDS011;2434;48.486;7.964;2023-09-18T07:47:40;3.40;;;1.10;;
4839;SDS011;2434;48.486;7.964;2023-09-18T07:50:09;4.97;;;1.57;;
4839;SDS011;2434;48.486;7.964;2023-09-18T07:52:38;4.47;;;1.57;;
4839;SDS011;2434;48.486;7.964;2023-09-18T07:55:06;3.87;;;1.47;;
4839;SDS011;2434;48.486;7.964;2023-09-18T07:57:37;6.10;;;1.43;;
4839;SDS011;2434;48.486;7.964;2023-09-18T08:00:06;2.97;;;1.20;;
4839;SDS011;2434;48.486;7.964;2023-09-18T08:02:38;4.57;;;1.73;;
4839;SDS011;2434;48.486;7.964;2023-09-18T08:05:07;3.87;;;1.70;;
4839;SDS011;2434;48.486;7.964;2023-09-18T08:07:36;5.30;;;1.60;;
4839;SDS011;2434;48.486;7.964;2023-09-18T08:10:05;2.77;;;0.90;;
4839;SDS011;2434;48.486;7.964;2023-09-18T08:12:35;7.33;;;1.83;;
4839;SDS011;2434;48.486;7.964;2023-09-18T08:15:06;5.93;;;2.30;;
4839;SDS011;2434;48.486;7.964;2023-09-18T08:17:35;15.57;;;2.60;;
4839;SDS011;2434;48.486;7.964;2023-09-18T08:20:04;4.33;;;2.37;;
4839;SDS011;2434;48.486;7.964;2023-09-18T08:22:39;5.53;;;1.87;;
4839;SDS011;2434;48.486;7.964;2023-09-18T08:25:08;7.30;;;1.77;;
4839;SDS011;2434;48.486;7.964;2023-09-18T08:27:38;9.80;;;1.37;;
4839;SDS011;2434;48.486;7.964;2023-09-18T08:30:10;7.17;;;1.90;;
4839;SDS011;2434;48.486;7.964;2023-09-18T08:32:40;5.67;;;1.57;;
4839;SDS011;2434;48.486;7.964;2023-09-18T08:35:09;6.80;;;1.50;;
4839;SDS011;2434;48.486;7.964;2023-09-18T08:37:39;4.63;;;1.63;;
4839;SDS011;2434;48.486;7.964;2023-09-18T08:40:09;3.63;;;1.20;;
4839;SDS011;2434;48.486;7.964;2023-09-18T08:42:44;9.90;;;2.13;;
4839;SDS011;2434;48.486;7.964;2023-09-18T08:45:15;5.80;;;1.17;;
4839;SDS011;2434;48.486;7.964;2023-09-18T08:47:49;2.93;;;1.47;;
4839;SDS011;2434;48.486;7.964;2023-09-18T08:50:20;4.00;;;1.40;;
4839;SDS011;2434;48.486;7.964;2023-09-18T08:52:49;6.87;;;1.60;;
4839;SDS011;2434;48.486;7.964;2023-09-18T08:55:18;5.00;;;1.73;;
4839;SDS011;2434;48.486;7.964;2023-09-18T08:57:46;2.50;;;1.30;;
4839;SDS011;2434;48.486;7.964;2023-09-18T09:00:17;4.00;;;1.17;;
4839;SDS011;2434;48.486;7.964;2023-09-18T09:02:46;13.13;;;2.13;;
4839;SDS011;2434;48.486;7.964;2023-09-18T09:05:18;4.77;;;1.60;;
4839;SDS011;2434;48.486;7.964;2023-09-18T09:07:46;4.03;;;1.50;;
4839;SDS011;2434;48.486;7.964;2023-09-18T09:10:16;3.43;;;1.27;;
4839;SDS011;2434;48.486;7.964;2023-09-18T09:12:48;2.37;;;1.40;;
4839;SDS011;2434;48.486;7.964;2023-09-18T09:15:23;4.97;;;1.47;;
4839;SDS011;2434;48.486;7.964;2023-09-18T09:18:02;7.57;;;1.27;;
4839;SDS011;2434;48.486;7.964;2023-09-18T09:20:32;6.47;;;1.90;;
4839;SDS011;2434;48.486;7.964;2023-09-18T09:23:02;2.30;;;1.20;;
4839;SDS011;2434;48.486;7.964;2023-09-18T09:25:33;14.03;;;1.10;;
4839;SDS011;2434;48.486;7.964;2023-09-18T09:28:02;2.90;;;1.20;;
4839;SDS011;2434;48.486;7.964;2023-09-18T09:30:33;3.50;;;1.30;;
4839;SDS011;2434;48.486;7.964;2023-09-18T09:33:03;2.07;;;0.83;;
4839;SDS011;2434;48.486;7.964;2023-09-18T09:35:36;4.10;;;0.93;;
4839;SDS011;2434;48.486;7.964;2023-09-18T09:38:09;3.03;;;1.07;;
4839;SDS011;2434;48.486;7.964;2023-09-18T09:40:39;2.87;;;1.20;;
4839;SDS011;2434;48.486;7.964;2023-09-18T09:43:10;4.33;;;1.53;;
4839;SDS011;2434;48.486;7.964;2023-09-18T09:45:42;4.90;;;1.03;;
4839;SDS011;2434;48.486;7.964;2023-09-18T09:48:13;1.53;;;0.90;;
4839;SDS011;2434;48.486;7.964;2023-09-18T09:50:45;2.00;;;0.90;;
4839;SDS011;2434;48.486;7.964;2023-09-18T09:53:16;4.37;;;1.10;;
4839;SDS011;2434;48.486;7.964;2023-09-18T09:55:44;10.70;;;1.43;;
4839;SDS011;2434;48.486;7.964;2023-09-18T09:58:21;3.40;;;1.30;;
4839;SDS011;2434;48.486;7.964;2023-09-18T10:00:59;3.43;;;1.43;;
4839;SDS011;2434;48.486;7.964;2023-09-18T10:03:35;4.80;;;1.30;;
4839;SDS011;2434;48.486;7.964;2023-09-18T10:06:06;5.87;;;1.33;;
4839;SDS011;2434;48.486;7.964;2023-09-18T10:08:36;1.93;;;0.87;;
4839;SDS011;2434;48.486;7.964;2023-09-18T10:11:07;5.20;;;1.00;;
4839;SDS011;2434;48.486;7.964;2023-09-18T10:13:46;3.80;;;1.00;;
4839;SDS011;2434;48.486;7.964;2023-09-18T10:16:18;2.20;;;1.00;;
4839;SDS011;2434;48.486;7.964;2023-09-18T10:18:51;3.77;;;1.03;;
4839;SDS011;2434;48.486;7.964;2023-09-18T10:21:30;3.07;;;0.90;;
4839;SDS011;2434;48.486;7.964;2023-09-18T10:24:05;3.63;;;1.03;;
4839;SDS011;2434;48.486;7.964;2023-09-18T10:26:42;5.67;;;1.00;;
4839;SDS011;2434;48.486;7.964;2023-09-18T10:29:16;3.13;;;1.17;;
4839;SDS011;2434;48.486;7.964;2023-09-18T10:31:49;4.67;;;1.07;;
4839;SDS011;2434;48.486;7.964;2023-09-18T10:34:18;6.10;;;1.07;;
4839;SDS011;2434;48.486;7.964;2023-09-18T10:36:47;2.70;;;1.00;;
4839;SDS011;2434;48.486;7.964;2023-09-18T10:39:16;4.07;;;1.30;;
4839;SDS011;2434;48.486;7.964;2023-09-18T10:41:47;5.77;;;1.10;;
4839;SDS011;2434;48.486;7.964;2023-09-18T10:44:16;3.77;;;1.03;;
4839;SDS011;2434;48.486;7.964;2023-09-18T10:46:44;4.60;;;1.10;;
4839;SDS011;2434;48.486;7.964;2023-09-18T10:49:15;2.53;;;1.00;;
4839;SDS011;2434;48.486;7.964;2023-09-18T10:51:43;6.90;;;1.33;;
4839;SDS011;2434;48.486;7.964;2023-09-18T10:54:15;4.30;;;1.60;;
4839;SDS011;2434;48.486;7.964;2023-09-18T10:56:44;3.80;;;1.00;;
4839;SDS011;2434;48.486;7.964;2023-09-18T10:59:13;2.70;;;1.13;;
4839;SDS011;2434;48.486;7.964;2023-09-18T11:01:42;4.40;;;1.47;;
4839;SDS011;2434;48.486;7.964;2023-09-18T11:04:12;3.57;;;1.00;;
4839;SDS011;2434;48.486;7.964;2023-09-18T11:07:01;1.80;;;1.10;;
4839;SDS011;2434;48.486;7.964;2023-09-18T11:09:32;2.00;;;1.00;;
4839;SDS011;2434;48.486;7.964;2023-09-18T11:12:09;3.03;;;1.10;;
4839;SDS011;2434;48.486;7.964;2023-09-18T11:14:42;3.70;;;1.10;;
4839;SDS011;2434;48.486;7.964;2023-09-18T11:20:07;3.10;;;1.27;;
4839;SDS011;2434;48.486;7.964;2023-09-18T11:22:39;2.73;;;1.07;;
4839;SDS011;2434;48.486;7.964;2023-09-18T11:25:29;4.87;;;1.17;;
4839;SDS011;2434;48.486;7.964;2023-09-18T11:28:04;3.77;;;1.00;;
4839;SDS011;2434;48.486;7.964;2023-09-18T11:30:35;3.93;;;1.70;;
4839;SDS011;2434;48.486;7.964;2023-09-18T11:33:05;4.30;;;1.33;;
4839;SDS011;2434;48.486;7.964;2023-09-18T11:35:37;2.33;;;1.10;;
4839;SDS011;2434;48.486;7.964;2023-09-18T11:38:18;3.20;;;0.97;;
4839;SDS011;2434;48.486;7.964;2023-09-18T11:40:47;5.33;;;1.10;;
4839;SDS011;2434;48.486;7.964;2023-09-18T11:43:19;3.20;;;0.80;;
4839;SDS011;2434;48.486;7.964;2023-09-18T11:45:52;6.20;;;1.73;;
4839;SDS011;2434;48.486;7.964;2023-09-18T11:48:22;3.43;;;1.37;;
4839;SDS011;2434;48.486;7.964;2023-09-18T11:50:58;2.17;;;1.00;;
4839;SDS011;2434;48.486;7.964;2023-09-18T11:53:29;4.33;;;0.90;;
4839;SDS011;2434;48.486;7.964;2023-09-18T11:56:03;3.83;;;1.03;;
4839;SDS011;2434;48.486;7.964;2023-09-18T11:58:31;9.50;;;1.53;;
4839;SDS011;2434;48.486;7.964;2023-09-18T12:01:12;6.43;;;1.40;;
4839;SDS011;2434;48.486;7.964;2023-09-18T12:03:42;3.20;;;1.20;;
4839;SDS011;2434;48.486;7.964;2023-09-18T12:06:12;2.10;;;1.20;;
4839;SDS011;2434;48.486;7.964;2023-09-18T12:08:42;3.03;;;0.97;;
4839;SDS011;2434;48.486;7.964;2023-09-18T12:11:10;3.10;;;1.20;;
4839;SDS011;2434;48.486;7.964;2023-09-18T12:13:45;6.40;;;1.50;;
4839;SDS011;2434;48.486;7.964;2023-09-18T12:16:14;8.70;;;1.50;;
4839;SDS011;2434;48.486;7.964;2023-09-18T12:18:46;5.83;;;1.27;;
4839;SDS011;2434;48.486;7.964;2023-09-18T12:21:17;4.43;;;1.20;;
4839;SDS011;2434;48.486;7.964;2023-09-18T12:23:45;2.47;;;1.10;;
4839;SDS011;2434;48.486;7.964;2023-09-18T12:26:15;5.47;;;1.20;;
4839;SDS011;2434;48.486;7.964;2023-09-18T12:28:46;5.40;;;1.10;;
4839;SDS011;2434;48.486;7.964;2023-09-18T12:31:15;2.40;;;1.00;;
4839;SDS011;2434;48.486;7.964;2023-09-18T12:33:44;5.80;;;1.10;;
4839;SDS011;2434;48.486;7.964;2023-09-18T12:36:18;5.10;;;0.90;;
4839;SDS011;2434;48.486;7.964;2023-09-18T12:38:55;5.97;;;1.87;;
4839;SDS011;2434;48.486;7.964;2023-09-18T12:41:24;3.03;;;1.13;;
4839;SDS011;2434;48.486;7.964;2023-09-18T12:43:58;3.57;;;1.37;;
4839;SDS011;2434;48.486;7.964;2023-09-18T12:46:27;6.20;;;0.90;;
4839;SDS011;2434;48.486;7.964;2023-09-18T12:48:57;3.27;;;0.90;;
4839;SDS011;2434;48.486;7.964;2023-09-18T12:51:30;3.83;;;1.13;;
4839;SDS011;2434;48.486;7.964;2023-09-18T12:53:59;2.40;;;0.90;;
4839;SDS011;2434;48.486;7.964;2023-09-18T12:56:33;5.13;;;1.50;;
4839;SDS011;2434;48.486;7.964;2023-09-18T12:59:08;3.10;;;0.80;;
4839;SDS011;2434;48.486;7.964;2023-09-18T13:01:45;3.67;;;1.47;;
4839;SDS011;2434;48.486;7.964;2023-09-18T13:04:14;2.27;;;1.10;;
4839;SDS011;2434;48.486;7.964;2023-09-18T13:06:44;2.00;;;0.90;;
4839;SDS011;2434;48.486;7.964;2023-09-18T13:09:16;2.70;;;1.20;;
4839;SDS011;2434;48.486;7.964;2023-09-18T13:11:52;2.23;;;1.00;;
4839;SDS011;2434;48.486;7.964;2023-09-18T13:14:20;2.60;;;1.13;;
4839;SDS011;2434;48.486;7.964;2023-09-18T13:16:49;1.80;;;0.80;;
4839;SDS011;2434;48.486;7.964;2023-09-18T13:19:17;1.40;;;0.80;;
4839;SDS011;2434;48.486;7.964;2023-09-18T13:21:47;2.43;;;0.93;;
4839;SDS011;2434;48.486;7.964;2023-09-18T13:24:27;1.57;;;0.87;;
4839;SDS011;2434;48.486;7.964;2023-09-18T13:26:56;1.53;;;0.70;;
4839;SDS011;2434;48.486;7.964;2023-09-18T13:29:25;2.63;;;0.80;;
4839;SDS011;2434;48.486;7.964;2023-09-18T13:31:53;1.93;;;0.87;;
4839;SDS011;2434;48.486;7.964;2023-09-18T13:34:22;4.40;;;1.13;;
4839;SDS011;2434;48.486;7.964;2023-09-18T13:36:51;2.03;;;0.67;;
4839;SDS011;2434;48.486;7.964;2023-09-18T13:39:19;2.23;;;1.00;;
4839;SDS011;2434;48.486;7.964;2023-09-18T13:41:47;4.00;;;0.70;;
4839;SDS011;2434;48.486;7.964;2023-09-18T13:44:15;4.63;;;1.03;;
4839;SDS011;2434;48.486;7.964;2023-09-18T13:46:48;2.27;;;1.00;;
4839;SDS011;2434;48.486;7.964;2023-09-18T13:49:16;4.50;;;1.17;;
4839;SDS011;2434;48.486;7.964;2023-09-18T13:51:44;2.60;;;1.17;;
4839;SDS011;2434;48.486;7.964;2023-09-18T13:54:14;3.00;;;1.27;;
4839;SDS011;2434;48.486;7.964;2023-09-18T13:56:43;2.40;;;0.87;;
4839;SDS011;2434;48.486;7.964;2023-09-18T13:59:11;3.97;;;1.00;;
4839;SDS011;2434;48.486;7.964;2023-09-18T14:01:39;3.47;;;1.10;;
4839;SDS011;2434;48.486;7.964;2023-09-18T14:04:07;2.30;;;0.90;;
4839;SDS011;2434;48.486;7.964;2023-09-18T14:06:35;1.50;;;0.87;;
4839;SDS011;2434;48.486;7.964;2023-09-18T14:09:04;3.53;;;1.00;;
4839;SDS011;2434;48.486;7.964;2023-09-18T14:11:34;3.77;;;1.37;;
4839;SDS011;2434;48.486;7.964;2023-09-18T14:14:04;1.87;;;0.90;;
4839;SDS011;2434;48.486;7.964;2023-09-18T14:16:33;3.70;;;1.20;;
4839;SDS011;2434;48.486;7.964;2023-09-18T14:19:01;2.03;;;1.00;;
4839;SDS011;2434;48.486;7.964;2023-09-18T14:21:30;5.43;;;2.10;;
4839;SDS011;2434;48.486;7.964;2023-09-18T14:24:00;4.80;;;1.37;;
4839;SDS011;2434;48.486;7.964;2023-09-18T14:26:28;4.47;;;1.23;;
4839;SDS011;2434;48.486;7.964;2023-09-18T14:28:58;4.80;;;1.27;;
4839;SDS011;2434;48.486;7.964;2023-09-18T14:31:26;7.83;;;1.20;;
4839;SDS011;2434;48.486;7.964;2023-09-18T14:33:54;3.47;;;1.17;;
4839;SDS011;2434;48.486;7.964;2023-09-18T14:36:24;1.70;;;1.00;;
4839;SDS011;2434;48.486;7.964;2023-09-18T14:38:52;1.60;;;0.90;;
4839;SDS011;2434;48.486;7.964;2023-09-18T14:41:21;6.10;;;0.87;;
4839;SDS011;2434;48.486;7.964;2023-09-18T14:43:51;4.00;;;1.30;;
4839;SDS011;2434;48.486;7.964;2023-09-18T14:46:21;2.30;;;0.97;;
4839;SDS011;2434;48.486;7.964;2023-09-18T14:48:49;3.87;;;1.30;;
4839;SDS011;2434;48.486;7.964;2023-09-18T14:51:17;2.50;;;1.33;;
4839;SDS011;2434;48.486;7.964;2023-09-18T14:53:46;1.80;;;0.80;;
4839;SDS011;2434;48.486;7.964;2023-09-18T14:56:14;4.57;;;0.93;;
4839;SDS011;2434;48.486;7.964;2023-09-18T14:58:42;5.23;;;1.10;;
4839;SDS011;2434;48.486;7.964;2023-09-18T15:01:11;1.80;;;1.13;;
4839;SDS011;2434;48.486;7.964;2023-09-18T15:03:42;4.07;;;1.30;;
4839;SDS011;2434;48.486;7.964;2023-09-18T15:06:12;2.53;;;1.30;;
4839;SDS011;2434;48.486;7.964;2023-09-18T15:08:41;5.23;;;1.10;;
4839;SDS011;2434;48.486;7.964;2023-09-18T15:11:10;3.30;;;1.20;;
4839;SDS011;2434;48.486;7.964;2023-09-18T15:13:39;7.63;;;1.63;;
4839;SDS011;2434;48.486;7.964;2023-09-18T15:16:07;4.43;;;1.07;;
4839;SDS011;2434;48.486;7.964;2023-09-18T15:18:35;5.40;;;1.20;;
4839;SDS011;2434;48.486;7.964;2023-09-18T15:21:05;3.63;;;1.03;;
4839;SDS011;2434;48.486;7.964;2023-09-18T15:23:33;3.93;;;1.30;;
4839;SDS011;2434;48.486;7.964;2023-09-18T15:26:02;3.00;;;1.63;;
4839;SDS011;2434;48.486;7.964;2023-09-18T15:28:30;4.73;;;1.67;;
4839;SDS011;2434;48.486;7.964;2023-09-18T15:31:00;4.07;;;1.37;;
4839;SDS011;2434;48.486;7.964;2023-09-18T15:33:28;3.70;;;1.40;;
4839;SDS011;2434;48.486;7.964;2023-09-18T15:35:57;3.20;;;1.17;;